sensor_id;sensor_type;location;lat;lon;timestamp;temperature;humidity
26964;DHT22;14521;48.148;-1.656;2023-12-20T00:00:23;16.90;92.30
26964;DHT22;14521;48.148;-1.656;2023-12-20T00:03:45;16.90;92.20
26964;DHT22;14521;48.148;-1.656;2023-12-20T00:07:07;16.90;92.30
26964;DHT22;14521;48.148;-1.656;2023-12-20T00:10:30;16.90;92.30
26964;DHT22;14521;48.148;-1.656;2023-12-20T00:13:52;16.90;92.30
26964;DHT22;14521;48.148;-1.656;2023-12-20T00:17:15;16.90;92.30
26964;DHT22;14521;48.148;-1.656;2023-12-20T00:20:37;16.90;92.20
26964;DHT22;14521;48.148;-1.656;2023-12-20T00:23:59;16.90;92.20
26964;DHT22;14521;48.148;-1.656;2023-12-20T00:27:22;16.80;92.20
26964;DHT22;14521;48.148;-1.656;2023-12-20T00:30:45;16.90;92.20
26964;DHT22;14521;48.148;-1.656;2023-12-20T00:34:08;16.90;92.10
26964;DHT22;14521;48.148;-1.656;2023-12-20T00:37:30;16.80;92.10
26964;DHT22;14521;48.148;-1.656;2023-12-20T00:40:53;16.90;92.20
26964;DHT22;14521;48.148;-1.656;2023-12-20T00:44:15;16.80;92.10
26964;DHT22;14521;48.148;-1.656;2023-12-20T00:47:38;16.80;92.00
26964;DHT22;14521;48.148;-1.656;2023-12-20T00:51:01;16.80;92.00
26964;DHT22;14521;48.148;-1.656;2023-12-20T00:54:23;16.80;92.00
26964;DHT22;14521;48.148;-1.656;2023-12-20T00:57:45;16.80;92.00
26964;DHT22;14521;48.148;-1.656;2023-12-20T01:01:08;16.80;91.90
26964;DHT22;14521;48.148;-1.656;2023-12-20T01:04:31;16.80;91.90
26964;DHT22;14521;48.148;-1.656;2023-12-20T01:07:53;16.80;91.90
26964;DHT22;14521;48.148;-1.656;2023-12-20T01:11:15;16.80;91.90
26964;DHT22;14521;48.148;-1.656;2023-12-20T01:14:38;16.80;91.90
26964;DHT22;14521;48.148;-1.656;2023-12-20T01:18:01;16.80;91.90
26964;DHT22;14521;48.148;-1.656;2023-12-20T01:21:24;16.80;92.20
26964;DHT22;14521;48.148;-1.656;2023-12-20T01:24:47;16.80;91.90
26964;DHT22;14521;48.148;-1.656;2023-12-20T01:28:10;16.80;91.80
26964;DHT22;14521;48.148;-1.656;2023-12-20T01:31:32;16.80;91.80
26964;DHT22;14521;48.148;-1.656;2023-12-20T01:34:54;16.80;91.80
26964;DHT22;14521;48.148;-1.656;2023-12-20T01:38:21;16.80;92.20
26964;DHT22;14521;48.148;-1.656;2023-12-20T01:41:44;16.80;91.80
26964;DHT22;14521;48.148;-1.656;2023-12-20T01:45:07;16.80;91.80
26964;DHT22;14521;48.148;-1.656;2023-12-20T01:48:30;16.80;91.80
26964;DHT22;14521;48.148;-1.656;2023-12-20T01:51:54;16.80;91.70
26964;DHT22;14521;48.148;-1.656;2023-12-20T01:55:19;16.80;91.70
26964;DHT22;14521;48.148;-1.656;2023-12-20T01:58:45;16.70;91.70
26964;DHT22;14521;48.148;-1.656;2023-12-20T02:02:08;16.80;91.70
26964;DHT22;14521;48.148;-1.656;2023-12-20T02:05:31;16.70;91.70
26964;DHT22;14521;48.148;-1.656;2023-12-20T02:08:54;16.70;91.70
26964;DHT22;14521;48.148;-1.656;2023-12-20T02:12:16;16.70;91.70
26964;DHT22;14521;48.148;-1.656;2023-12-20T02:15:39;16.70;91.70
26964;DHT22;14521;48.148;-1.656;2023-12-20T02:19:07;16.70;91.60
26964;DHT22;14521;48.148;-1.656;2023-12-20T02:22:33;16.70;91.60
26964;DHT22;14521;48.148;-1.656;2023-12-20T02:25:55;16.70;91.60
26964;DHT22;14521;48.148;-1.656;2023-12-20T02:29:18;16.80;91.70
26964;DHT22;14521;48.148;-1.656;2023-12-20T02:32:40;16.70;91.60
26964;DHT22;14521;48.148;-1.656;2023-12-20T02:36:03;16.70;91.60
26964;DHT22;14521;48.148;-1.656;2023-12-20T02:39:25;16.70;91.60
26964;DHT22;14521;48.148;-1.656;2023-12-20T02:42:48;16.70;91.60
26964;DHT22;14521;48.148;-1.656;2023-12-20T02:46:10;16.70;91.60
26964;DHT22;14521;48.148;-1.656;2023-12-20T02:49:32;16.70;91.60
26964;DHT22;14521;48.148;-1.656;2023-12-20T02:52:55;16.70;91.60
26964;DHT22;14521;48.148;-1.656;2023-12-20T02:56:17;16.70;91.50
26964;DHT22;14521;48.148;-1.656;2023-12-20T02:59:40;16.70;91.50
26964;DHT22;14521;48.148;-1.656;2023-12-20T03:03:02;16.70;91.50
26964;DHT22;14521;48.148;-1.656;2023-12-20T03:06:24;16.70;91.50
26964;DHT22;14521;48.148;-1.656;2023-12-20T03:09:47;16.70;91.50
26964;DHT22;14521;48.148;-1.656;2023-12-20T03:13:29;16.70;91.40
26964;DHT22;14521;48.148;-1.656;2023-12-20T03:16:51;16.70;91.40
26964;DHT22;14521;48.148;-1.656;2023-12-20T03:20:14;16.70;91.50
26964;DHT22;14521;48.148;-1.656;2023-12-20T03:23:36;16.70;91.40
26964;DHT22;14521;48.148;-1.656;2023-12-20T03:26:59;16.70;91.40
26964;DHT22;14521;48.148;-1.656;2023-12-20T03:30:21;16.70;91.40
26964;DHT22;14521;48.148;-1.656;2023-12-20T03:33:43;16.70;91.40
26964;DHT22;14521;48.148;-1.656;2023-12-20T03:37:06;16.70;91.40
26964;DHT22;14521;48.148;-1.656;2023-12-20T03:40:28;16.70;91.40
26964;DHT22;14521;48.148;-1.656;2023-12-20T03:43:50;16.70;91.50
26964;DHT22;14521;48.148;-1.656;2023-12-20T03:47:13;16.70;91.40
26964;DHT22;14521;48.148;-1.656;2023-12-20T03:50:35;16.70;91.30
26964;DHT22;14521;48.148;-1.656;2023-12-20T03:53:57;16.70;91.30
26964;DHT22;14521;48.148;-1.656;2023-12-20T03:57:20;16.60;91.30
26964;DHT22;14521;48.148;-1.656;2023-12-20T04:00:42;16.70;91.30
26964;DHT22;14521;48.148;-1.656;2023-12-20T04:04:04;16.70;91.30
26964;DHT22;14521;48.148;-1.656;2023-12-20T04:07:27;16.70;91.30
26964;DHT22;14521;48.148;-1.656;2023-12-20T04:10:49;16.60;91.30
26964;DHT22;14521;48.148;-1.656;2023-12-20T04:14:12;16.70;91.30
26964;DHT22;14521;48.148;-1.656;2023-12-20T04:17:34;16.70;91.30
26964;DHT22;14521;48.148;-1.656;2023-12-20T04:20:57;16.70;91.30
26964;DHT22;14521;48.148;-1.656;2023-12-20T04:24:19;16.60;91.20
26964;DHT22;14521;48.148;-1.656;2023-12-20T04:27:41;16.70;91.20
26964;DHT22;14521;48.148;-1.656;2023-12-20T04:31:04;16.60;91.20
26964;DHT22;14521;48.148;-1.656;2023-12-20T04:34:27;16.70;91.30
26964;DHT22;14521;48.148;-1.656;2023-12-20T04:37:49;16.60;91.20
26964;DHT22;14521;48.148;-1.656;2023-12-20T04:41:11;16.60;91.20
26964;DHT22;14521;48.148;-1.656;2023-12-20T04:44:37;16.60;91.20
26964;DHT22;14521;48.148;-1.656;2023-12-20T04:48:01;16.60;91.20
26964;DHT22;14521;48.148;-1.656;2023-12-20T04:51:24;16.60;91.10
26964;DHT22;14521;48.148;-1.656;2023-12-20T04:54:47;16.60;91.10
26964;DHT22;14521;48.148;-1.656;2023-12-20T04:58:09;16.60;91.10
26964;DHT22;14521;48.148;-1.656;2023-12-20T05:01:31;16.60;91.10
26964;DHT22;14521;48.148;-1.656;2023-12-20T05:04:54;16.60;91.10
26964;DHT22;14521;48.148;-1.656;2023-12-20T05:08:17;16.60;91.10
26964;DHT22;14521;48.148;-1.656;2023-12-20T05:11:39;16.60;91.00
26964;DHT22;14521;48.148;-1.656;2023-12-20T05:15:20;16.60;91.10
26964;DHT22;14521;48.148;-1.656;2023-12-20T05:18:43;16.60;91.00
26964;DHT22;14521;48.148;-1.656;2023-12-20T05:22:05;16.60;91.00
26964;DHT22;14521;48.148;-1.656;2023-12-20T05:25:28;16.60;91.00
26964;DHT22;14521;48.148;-1.656;2023-12-20T05:28:50;16.60;91.00
26964;DHT22;14521;48.148;-1.656;2023-12-20T05:32:13;16.60;91.00
26964;DHT22;14521;48.148;-1.656;2023-12-20T05:35:35;16.60;91.00
26964;DHT22;14521;48.148;-1.656;2023-12-20T05:38:57;16.60;91.10
26964;DHT22;14521;48.148;-1.656;2023-12-20T05:42:19;16.60;91.00
26964;DHT22;14521;48.148;-1.656;2023-12-20T05:45:42;16.60;91.00
26964;DHT22;14521;48.148;-1.656;2023-12-20T05:49:04;16.60;91.00
26964;DHT22;14521;48.148;-1.656;2023-12-20T05:52:27;16.60;91.40
26964;DHT22;14521;48.148;-1.656;2023-12-20T05:55:49;16.60;91.00
26964;DHT22;14521;48.148;-1.656;2023-12-20T05:59:12;16.60;91.00
26964;DHT22;14521;48.148;-1.656;2023-12-20T06:02:34;16.60;91.00
26964;DHT22;14521;48.148;-1.656;2023-12-20T06:05:56;16.60;90.90
26964;DHT22;14521;48.148;-1.656;2023-12-20T06:09:34;16.60;91.00
26964;DHT22;14521;48.148;-1.656;2023-12-20T06:12:57;16.60;91.00
26964;DHT22;14521;48.148;-1.656;2023-12-20T06:16:22;16.60;90.90
26964;DHT22;14521;48.148;-1.656;2023-12-20T06:19:45;16.60;91.00
26964;DHT22;14521;48.148;-1.656;2023-12-20T06:23:10;16.60;91.00
26964;DHT22;14521;48.148;-1.656;2023-12-20T06:26:32;16.60;91.00
26964;DHT22;14521;48.148;-1.656;2023-12-20T06:29:56;16.60;91.00
26964;DHT22;14521;48.148;-1.656;2023-12-20T06:33:18;16.60;91.00
26964;DHT22;14521;48.148;-1.656;2023-12-20T06:36:41;16.60;91.10
26964;DHT22;14521;48.148;-1.656;2023-12-20T06:40:04;16.60;91.10
26964;DHT22;14521;48.148;-1.656;2023-12-20T06:43:28;16.60;91.10
26964;DHT22;14521;48.148;-1.656;2023-12-20T06:47:10;16.60;91.10
26964;DHT22;14521;48.148;-1.656;2023-12-20T06:50:33;16.60;91.10
26964;DHT22;14521;48.148;-1.656;2023-12-20T06:53:55;16.60;91.10
26964;DHT22;14521;48.148;-1.656;2023-12-20T06:57:17;16.50;91.00
26964;DHT22;14521;48.148;-1.656;2023-12-20T07:00:39;16.60;91.00
26964;DHT22;14521;48.148;-1.656;2023-12-20T07:04:02;16.60;91.00
26964;DHT22;14521;48.148;-1.656;2023-12-20T07:07:24;16.60;91.20
26964;DHT22;14521;48.148;-1.656;2023-12-20T07:10:47;16.60;91.10
26964;DHT22;14521;48.148;-1.656;2023-12-20T07:14:09;16.60;91.00
26964;DHT22;14521;48.148;-1.656;2023-12-20T07:17:32;16.60;91.10
26964;DHT22;14521;48.148;-1.656;2023-12-20T07:20:55;16.60;91.10
26964;DHT22;14521;48.148;-1.656;2023-12-20T07:24:17;16.60;91.10
26964;DHT22;14521;48.148;-1.656;2023-12-20T07:27:39;16.60;91.10
26964;DHT22;14521;48.148;-1.656;2023-12-20T07:31:06;16.60;91.60
26964;DHT22;14521;48.148;-1.656;2023-12-20T07:34:29;16.60;91.40
26964;DHT22;14521;48.148;-1.656;2023-12-20T07:37:51;16.60;91.50
26964;DHT22;14521;48.148;-1.656;2023-12-20T07:41:14;16.70;91.60
26964;DHT22;14521;48.148;-1.656;2023-12-20T07:44:38;16.70;91.60
26964;DHT22;14521;48.148;-1.656;2023-12-20T07:48:00;16.70;91.70
26964;DHT22;14521;48.148;-1.656;2023-12-20T07:51:22;16.70;91.70
26964;DHT22;14521;48.148;-1.656;2023-12-20T07:54:45;16.70;91.80
26964;DHT22;14521;48.148;-1.656;2023-12-20T07:58:08;16.70;91.70
26964;DHT22;14521;48.148;-1.656;2023-12-20T08:01:30;16.70;91.70
26964;DHT22;14521;48.148;-1.656;2023-12-20T08:04:52;16.70;91.80
26964;DHT22;14521;48.148;-1.656;2023-12-20T08:08:15;16.70;91.80
26964;DHT22;14521;48.148;-1.656;2023-12-20T08:11:37;16.70;91.70
26964;DHT22;14521;48.148;-1.656;2023-12-20T08:15:00;16.70;91.80
26964;DHT22;14521;48.148;-1.656;2023-12-20T08:18:22;16.70;91.70
26964;DHT22;14521;48.148;-1.656;2023-12-20T08:21:45;16.70;91.60
26964;DHT22;14521;48.148;-1.656;2023-12-20T08:25:08;16.70;91.60
26964;DHT22;14521;48.148;-1.656;2023-12-20T08:28:30;16.70;91.60
26964;DHT22;14521;48.148;-1.656;2023-12-20T08:31:54;16.70;91.60
26964;DHT22;14521;48.148;-1.656;2023-12-20T08:35:17;16.70;91.60
26964;DHT22;14521;48.148;-1.656;2023-12-20T08:38:40;16.70;91.60
26964;DHT22;14521;48.148;-1.656;2023-12-20T08:42:03;16.70;91.50
26964;DHT22;14521;48.148;-1.656;2023-12-20T08:45:25;16.70;91.60
26964;DHT22;14521;48.148;-1.656;2023-12-20T08:48:48;16.70;91.60
26964;DHT22;14521;48.148;-1.656;2023-12-20T08:52:10;16.70;91.50
26964;DHT22;14521;48.148;-1.656;2023-12-20T08:55:32;16.70;91.50
26964;DHT22;14521;48.148;-1.656;2023-12-20T08:58:55;16.70;91.50
26964;DHT22;14521;48.148;-1.656;2023-12-20T09:02:17;16.70;91.50
26964;DHT22;14521;48.148;-1.656;2023-12-20T09:05:39;16.70;91.50
26964;DHT22;14521;48.148;-1.656;2023-12-20T09:09:02;16.70;91.50
26964;DHT22;14521;48.148;-1.656;2023-12-20T09:12:25;16.70;91.50
26964;DHT22;14521;48.148;-1.656;2023-12-20T09:15:47;16.70;91.40
26964;DHT22;14521;48.148;-1.656;2023-12-20T09:19:09;16.70;91.40
26964;DHT22;14521;48.148;-1.656;2023-12-20T09:22:32;16.70;91.40
26964;DHT22;14521;48.148;-1.656;2023-12-20T09:25:54;16.70;91.40
26964;DHT22;14521;48.148;-1.656;2023-12-20T09:29:19;16.70;91.30
26964;DHT22;14521;48.148;-1.656;2023-12-20T09:32:41;16.70;91.30
26964;DHT22;14521;48.148;-1.656;2023-12-20T09:36:06;16.70;91.30
26964;DHT22;14521;48.148;-1.656;2023-12-20T09:39:28;16.70;91.30
26964;DHT22;14521;48.148;-1.656;2023-12-20T09:42:57;16.70;91.30
26964;DHT22;14521;48.148;-1.656;2023-12-20T09:46:22;16.70;91.30
26964;DHT22;14521;48.148;-1.656;2023-12-20T09:49:46;16.70;91.30
26964;DHT22;14521;48.148;-1.656;2023-12-20T09:53:10;16.70;91.30
26964;DHT22;14521;48.148;-1.656;2023-12-20T09:56:34;16.70;91.30
26964;DHT22;14521;48.148;-1.656;2023-12-20T09:59:56;16.70;91.30
26964;DHT22;14521;48.148;-1.656;2023-12-20T10:03:23;16.70;91.30
26964;DHT22;14521;48.148;-1.656;2023-12-20T10:06:45;16.70;91.30
26964;DHT22;14521;48.148;-1.656;2023-12-20T10:10:08;16.80;91.30
26964;DHT22;14521;48.148;-1.656;2023-12-20T10:13:31;16.80;91.30
26964;DHT22;14521;48.148;-1.656;2023-12-20T10:16:53;16.70;91.20
26964;DHT22;14521;48.148;-1.656;2023-12-20T10:20:42;16.80;91.20
26964;DHT22;14521;48.148;-1.656;2023-12-20T10:24:06;16.80;91.30
26964;DHT22;14521;48.148;-1.656;2023-12-20T10:27:28;16.80;91.30
26964;DHT22;14521;48.148;-1.656;2023-12-20T10:30:50;16.80;91.30
26964;DHT22;14521;48.148;-1.656;2023-12-20T10:34:13;16.80;91.30
26964;DHT22;14521;48.148;-1.656;2023-12-20T10:37:36;16.80;91.30
26964;DHT22;14521;48.148;-1.656;2023-12-20T10:41:01;16.80;91.30
26964;DHT22;14521;48.148;-1.656;2023-12-20T10:44:25;16.80;91.30
26964;DHT22;14521;48.148;-1.656;2023-12-20T10:47:49;16.80;91.20
26964;DHT22;14521;48.148;-1.656;2023-12-20T10:51:13;16.80;91.30
26964;DHT22;14521;48.148;-1.656;2023-12-20T10:54:35;16.80;91.30
26964;DHT22;14521;48.148;-1.656;2023-12-20T10:58:06;16.80;91.30
26964;DHT22;14521;48.148;-1.656;2023-12-20T11:01:29;16.70;91.20
26964;DHT22;14521;48.148;-1.656;2023-12-20T11:12:11;16.80;91.20
26964;DHT22;14521;48.148;-1.656;2023-12-20T11:15:38;16.70;91.10
26964;DHT22;14521;48.148;-1.656;2023-12-20T11:19:05;16.70;91.20
26964;DHT22;14521;48.148;-1.656;2023-12-20T11:22:30;16.70;91.10
26964;DHT22;14521;48.148;-1.656;2023-12-20T11:25:54;16.70;91.20
26964;DHT22;14521;48.148;-1.656;2023-12-20T11:32:52;16.80;91.20
26964;DHT22;14521;48.148;-1.656;2023-12-20T11:36:18;16.80;91.30
26964;DHT22;14521;48.148;-1.656;2023-12-20T11:39:43;16.80;91.60
26964;DHT22;14521;48.148;-1.656;2023-12-20T11:43:06;16.80;91.20
26964;DHT22;14521;48.148;-1.656;2023-12-20T11:46:28;16.80;91.30
26964;DHT22;14521;48.148;-1.656;2023-12-20T11:49:50;16.80;91.40
26964;DHT22;14521;48.148;-1.656;2023-12-20T11:53:13;16.80;91.30
26964;DHT22;14521;48.148;-1.656;2023-12-20T11:56:36;16.80;91.40
26964;DHT22;14521;48.148;-1.656;2023-12-20T11:59:58;16.80;91.30
26964;DHT22;14521;48.148;-1.656;2023-12-20T12:03:21;16.80;91.30
26964;DHT22;14521;48.148;-1.656;2023-12-20T12:06:44;16.80;91.30
26964;DHT22;14521;48.148;-1.656;2023-12-20T12:10:07;16.80;91.30
26964;DHT22;14521;48.148;-1.656;2023-12-20T12:13:30;16.80;91.30
26964;DHT22;14521;48.148;-1.656;2023-12-20T12:16:52;16.80;91.30
26964;DHT22;14521;48.148;-1.656;2023-12-20T12:20:20;16.80;91.40
26964;DHT22;14521;48.148;-1.656;2023-12-20T12:23:42;16.80;91.40
26964;DHT22;14521;48.148;-1.656;2023-12-20T12:27:08;16.80;91.30
26964;DHT22;14521;48.148;-1.656;2023-12-20T12:30:31;16.80;91.40
26964;DHT22;14521;48.148;-1.656;2023-12-20T12:34:01;16.80;91.40
26964;DHT22;14521;48.148;-1.656;2023-12-20T12:41:54;17.60;91.80
26964;DHT22;14521;48.148;-1.656;2023-12-20T12:45:16;18.20;91.30
26964;DHT22;14521;48.148;-1.656;2023-12-20T12:48:38;18.40;90.60
26964;DHT22;14521;48.148;-1.656;2023-12-20T12:52:03;18.20;89.20
26964;DHT22;14521;48.148;-1.656;2023-12-20T12:55:26;18.00;89.60
26964;DHT22;14521;48.148;-1.656;2023-12-20T12:58:48;18.00;90.00
26964;DHT22;14521;48.148;-1.656;2023-12-20T13:02:10;18.00;90.20
26964;DHT22;14521;48.148;-1.656;2023-12-20T13:05:32;17.90;90.50
26964;DHT22;14521;48.148;-1.656;2023-12-20T13:09:00;18.00;90.40
26964;DHT22;14521;48.148;-1.656;2023-12-20T13:12:22;18.00;90.80
26964;DHT22;14521;48.148;-1.656;2023-12-20T13:15:45;18.20;91.20
26964;DHT22;14521;48.148;-1.656;2023-12-20T13:19:13;18.40;91.10
26964;DHT22;14521;48.148;-1.656;2023-12-20T13:22:35;18.40;91.40
26964;DHT22;14521;48.148;-1.656;2023-12-20T13:25:58;18.50;91.50
26964;DHT22;14521;48.148;-1.656;2023-12-20T13:29:20;18.50;91.50
26964;DHT22;14521;48.148;-1.656;2023-12-20T13:32:42;18.50;91.40
26964;DHT22;14521;48.148;-1.656;2023-12-20T13:36:05;18.50;91.40
26964;DHT22;14521;48.148;-1.656;2023-12-20T13:39:29;18.50;91.50
26964;DHT22;14521;48.148;-1.656;2023-12-20T13:42:53;18.50;91.60
26964;DHT22;14521;48.148;-1.656;2023-12-20T13:46:17;18.60;91.20
26964;DHT22;14521;48.148;-1.656;2023-12-20T13:49:39;18.70;91.30
26964;DHT22;14521;48.148;-1.656;2023-12-20T13:53:01;18.70;91.30
26964;DHT22;14521;48.148;-1.656;2023-12-20T13:56:26;18.60;91.40
26964;DHT22;14521;48.148;-1.656;2023-12-20T13:59:48;18.40;89.30
26964;DHT22;14521;48.148;-1.656;2023-12-20T14:03:10;18.20;90.00
26964;DHT22;14521;48.148;-1.656;2023-12-20T14:06:33;18.10;90.90
26964;DHT22;14521;48.148;-1.656;2023-12-20T14:09:55;18.20;90.70
26964;DHT22;14521;48.148;-1.656;2023-12-20T14:13:17;18.20;90.60
26964;DHT22;14521;48.148;-1.656;2023-12-20T14:16:40;18.20;90.80
26964;DHT22;14521;48.148;-1.656;2023-12-20T14:20:05;18.20;90.80
26964;DHT22;14521;48.148;-1.656;2023-12-20T14:23:28;18.20;90.80
26964;DHT22;14521;48.148;-1.656;2023-12-20T14:26:50;18.20;90.90
26964;DHT22;14521;48.148;-1.656;2023-12-20T14:30:13;18.20;90.80
26964;DHT22;14521;48.148;-1.656;2023-12-20T14:33:37;18.20;90.80
26964;DHT22;14521;48.148;-1.656;2023-12-20T14:37:00;18.20;90.80
26964;DHT22;14521;48.148;-1.656;2023-12-20T14:40:23;18.10;90.80
26964;DHT22;14521;48.148;-1.656;2023-12-20T14:43:45;18.10;90.80
26964;DHT22;14521;48.148;-1.656;2023-12-20T14:47:09;18.10;90.90
26964;DHT22;14521;48.148;-1.656;2023-12-20T14:50:31;18.10;91.00
26964;DHT22;14521;48.148;-1.656;2023-12-20T14:53:53;18.30;91.00
26964;DHT22;14521;48.148;-1.656;2023-12-20T14:57:15;18.30;91.90
26964;DHT22;14521;48.148;-1.656;2023-12-20T15:00:38;18.40;91.90
26964;DHT22;14521;48.148;-1.656;2023-12-20T15:04:00;18.30;91.90
26964;DHT22;14521;48.148;-1.656;2023-12-20T15:07:23;18.30;92.20
26964;DHT22;14521;48.148;-1.656;2023-12-20T15:10:45;18.30;91.60
26964;DHT22;14521;48.148;-1.656;2023-12-20T15:14:08;18.30;91.70
26964;DHT22;14521;48.148;-1.656;2023-12-20T15:17:30;18.40;92.30
26964;DHT22;14521;48.148;-1.656;2023-12-20T15:20:52;18.20;90.50
26964;DHT22;14521;48.148;-1.656;2023-12-20T15:24:14;18.10;90.60
26964;DHT22;14521;48.148;-1.656;2023-12-20T15:27:38;18.00;90.90
26964;DHT22;14521;48.148;-1.656;2023-12-20T15:31:00;18.00;91.00
26964;DHT22;14521;48.148;-1.656;2023-12-20T15:34:23;18.00;91.20
26964;DHT22;14521;48.148;-1.656;2023-12-20T15:37:45;18.00;91.30
26964;DHT22;14521;48.148;-1.656;2023-12-20T15:41:08;18.00;91.50
26964;DHT22;14521;48.148;-1.656;2023-12-20T15:44:30;18.00;91.60
26964;DHT22;14521;48.148;-1.656;2023-12-20T15:47:52;18.00;91.70
26964;DHT22;14521;48.148;-1.656;2023-12-20T15:51:15;18.00;91.80
26964;DHT22;14521;48.148;-1.656;2023-12-20T15:54:37;18.00;91.80
26964;DHT22;14521;48.148;-1.656;2023-12-20T15:58:01;18.00;91.80
26964;DHT22;14521;48.148;-1.656;2023-12-20T16:01:23;18.10;92.00
26964;DHT22;14521;48.148;-1.656;2023-12-20T16:04:46;18.00;91.90
26964;DHT22;14521;48.148;-1.656;2023-12-20T16:08:08;18.10;91.90
26964;DHT22;14521;48.148;-1.656;2023-12-20T16:11:31;18.20;92.00
26964;DHT22;14521;48.148;-1.656;2023-12-20T16:14:53;18.20;91.80
26964;DHT22;14521;48.148;-1.656;2023-12-20T16:18:15;18.30;91.80
26964;DHT22;14521;48.148;-1.656;2023-12-20T16:21:38;18.20;91.70
26964;DHT22;14521;48.148;-1.656;2023-12-20T16:25:00;18.20;91.90
26964;DHT22;14521;48.148;-1.656;2023-12-20T16:28:22;18.20;91.90
26964;DHT22;14521;48.148;-1.656;2023-12-20T16:31:45;18.10;91.70
26964;DHT22;14521;48.148;-1.656;2023-12-20T16:35:07;18.10;91.80
26964;DHT22;14521;48.148;-1.656;2023-12-20T16:38:30;18.20;91.80
26964;DHT22;14521;48.148;-1.656;2023-12-20T16:41:52;18.10;91.60
26964;DHT22;14521;48.148;-1.656;2023-12-20T16:45:14;18.10;91.60
26964;DHT22;14521;48.148;-1.656;2023-12-20T16:48:36;18.10;91.60
26964;DHT22;14521;48.148;-1.656;2023-12-20T16:51:59;18.10;91.70
26964;DHT22;14521;48.148;-1.656;2023-12-20T16:55:24;18.10;91.40
26964;DHT22;14521;48.148;-1.656;2023-12-20T16:58:46;18.10;91.70
26964;DHT22;14521;48.148;-1.656;2023-12-20T17:02:08;18.10;91.60
26964;DHT22;14521;48.148;-1.656;2023-12-20T17:05:31;18.10;91.40
26964;DHT22;14521;48.148;-1.656;2023-12-20T17:08:53;18.10;91.30
26964;DHT22;14521;48.148;-1.656;2023-12-20T17:12:15;18.10;91.50
26964;DHT22;14521;48.148;-1.656;2023-12-20T17:15:38;18.10;91.50
26964;DHT22;14521;48.148;-1.656;2023-12-20T17:19:02;18.10;91.40
26964;DHT22;14521;48.148;-1.656;2023-12-20T17:22:26;18.10;91.40
26964;DHT22;14521;48.148;-1.656;2023-12-20T17:25:48;18.10;91.20
26964;DHT22;14521;48.148;-1.656;2023-12-20T17:29:10;18.10;91.60
26964;DHT22;14521;48.148;-1.656;2023-12-20T17:32:33;18.10;91.30
26964;DHT22;14521;48.148;-1.656;2023-12-20T17:35:59;18.10;91.30
26964;DHT22;14521;48.148;-1.656;2023-12-20T17:39:21;18.00;91.30
26964;DHT22;14521;48.148;-1.656;2023-12-20T17:42:44;18.10;91.20
26964;DHT22;14521;48.148;-1.656;2023-12-20T17:46:07;18.00;91.20
26964;DHT22;14521;48.148;-1.656;2023-12-20T17:49:29;18.00;91.20
26964;DHT22;14521;48.148;-1.656;2023-12-20T17:52:53;18.00;91.20
26964;DHT22;14521;48.148;-1.656;2023-12-20T17:56:17;18.00;91.30
26964;DHT22;14521;48.148;-1.656;2023-12-20T17:59:39;18.00;91.20
26964;DHT22;14521;48.148;-1.656;2023-12-20T18:03:03;18.00;91.20
26964;DHT22;14521;48.148;-1.656;2023-12-20T18:06:26;18.00;91.30
26964;DHT22;14521;48.148;-1.656;2023-12-20T18:09:48;18.00;91.10
26964;DHT22;14521;48.148;-1.656;2023-12-20T18:13:11;18.10;91.60
26964;DHT22;14521;48.148;-1.656;2023-12-20T18:16:33;18.10;91.40
26964;DHT22;14521;48.148;-1.656;2023-12-20T18:19:58;18.20;91.20
26964;DHT22;14521;48.148;-1.656;2023-12-20T18:23:22;18.30;91.00
26964;DHT22;14521;48.148;-1.656;2023-12-20T18:26:44;18.40;90.90
26964;DHT22;14521;48.148;-1.656;2023-12-20T18:30:07;18.40;90.80
26964;DHT22;14521;48.148;-1.656;2023-12-20T18:33:38;18.50;90.80
26964;DHT22;14521;48.148;-1.656;2023-12-20T18:37:00;18.50;90.70
26964;DHT22;14521;48.148;-1.656;2023-12-20T18:40:22;18.60;90.60
26964;DHT22;14521;48.148;-1.656;2023-12-20T18:43:49;18.60;90.50
26964;DHT22;14521;48.148;-1.656;2023-12-20T18:47:11;18.70;90.50
26964;DHT22;14521;48.148;-1.656;2023-12-20T18:50:33;18.70;90.40
26964;DHT22;14521;48.148;-1.656;2023-12-20T18:53:55;18.70;90.40
26964;DHT22;14521;48.148;-1.656;2023-12-20T18:57:18;18.70;90.40
26964;DHT22;14521;48.148;-1.656;2023-12-20T19:00:40;18.80;90.40
26964;DHT22;14521;48.148;-1.656;2023-12-20T19:04:03;18.80;90.40
26964;DHT22;14521;48.148;-1.656;2023-12-20T19:07:25;18.80;90.40
26964;DHT22;14521;48.148;-1.656;2023-12-20T19:10:47;18.80;90.40
26964;DHT22;14521;48.148;-1.656;2023-12-20T19:14:10;18.80;90.40
26964;DHT22;14521;48.148;-1.656;2023-12-20T19:17:35;18.80;90.40
26964;DHT22;14521;48.148;-1.656;2023-12-20T19:20:58;18.80;90.40
26964;DHT22;14521;48.148;-1.656;2023-12-20T19:24:21;18.80;90.40
26964;DHT22;14521;48.148;-1.656;2023-12-20T19:27:43;18.90;90.40
26964;DHT22;14521;48.148;-1.656;2023-12-20T19:31:06;18.80;90.40
26964;DHT22;14521;48.148;-1.656;2023-12-20T19:34:31;18.90;90.40
26964;DHT22;14521;48.148;-1.656;2023-12-20T19:37:55;18.80;90.40
26964;DHT22;14521;48.148;-1.656;2023-12-20T19:41:17;18.90;90.40
26964;DHT22;14521;48.148;-1.656;2023-12-20T19:44:39;18.90;90.40
26964;DHT22;14521;48.148;-1.656;2023-12-20T19:48:01;18.90;90.40
26964;DHT22;14521;48.148;-1.656;2023-12-20T19:51:24;18.90;90.40
26964;DHT22;14521;48.148;-1.656;2023-12-20T19:54:46;18.90;90.40
26964;DHT22;14521;48.148;-1.656;2023-12-20T19:58:09;18.90;90.50
26964;DHT22;14521;48.148;-1.656;2023-12-20T20:01:31;18.90;90.50
26964;DHT22;14521;48.148;-1.656;2023-12-20T20:04:54;18.90;90.50
26964;DHT22;14521;48.148;-1.656;2023-12-20T20:08:17;18.80;90.40
26964;DHT22;14521;48.148;-1.656;2023-12-20T20:11:39;18.80;90.40
26964;DHT22;14521;48.148;-1.656;2023-12-20T20:15:02;18.80;90.50
26964;DHT22;14521;48.148;-1.656;2023-12-20T20:18:25;18.80;90.40
26964;DHT22;14521;48.148;-1.656;2023-12-20T20:21:47;18.80;90.40
26964;DHT22;14521;48.148;-1.656;2023-12-20T20:25:09;18.80;90.50
26964;DHT22;14521;48.148;-1.656;2023-12-20T20:28:32;18.70;90.50
26964;DHT22;14521;48.148;-1.656;2023-12-20T20:31:55;18.70;90.50
26964;DHT22;14521;48.148;-1.656;2023-12-20T20:35:17;18.70;90.50
26964;DHT22;14521;48.148;-1.656;2023-12-20T20:38:41;18.70;90.50
26964;DHT22;14521;48.148;-1.656;2023-12-20T20:42:03;18.70;90.50
26964;DHT22;14521;48.148;-1.656;2023-12-20T20:45:25;18.70;90.60
26964;DHT22;14521;48.148;-1.656;2023-12-20T20:48:48;18.70;90.60
26964;DHT22;14521;48.148;-1.656;2023-12-20T20:52:13;18.60;90.60
26964;DHT22;14521;48.148;-1.656;2023-12-20T20:55:36;18.60;90.50
26964;DHT22;14521;48.148;-1.656;2023-12-20T20:58:58;18.60;90.50
26964;DHT22;14521;48.148;-1.656;2023-12-20T21:02:20;18.60;90.60
26964;DHT22;14521;48.148;-1.656;2023-12-20T21:05:42;18.50;90.50
26964;DHT22;14521;48.148;-1.656;2023-12-20T21:09:05;18.50;90.50
26964;DHT22;14521;48.148;-1.656;2023-12-20T21:12:27;18.50;90.50
26964;DHT22;14521;48.148;-1.656;2023-12-20T21:15:50;18.50;90.50